Time,TemperatureF,DewpointF,PressureIn,WindDirection,WindDirectionDegrees,WindSpeedMPH,WindSpeedGustMPH,Humidity,HourlyPrecipIn,Conditions,Clouds,dailyrainin,SoftwareType,DateUTC
2013-01-22 00:03:00,20.5,5.0,30.54,ENE,65,0.0,0.0,52,0.00,,,0.00,weatherlink.com 1.10,2013-01-22 07:03:00,
2013-01-22 00:18:00,18.9,4.0,30.53,ENE,65,4.0,4.0,52,0.00,,,0.00,weatherlink.com 1.10,2013-01-22 07:18:00,
2013-01-22 00:33:00,18.1,3.0,30.53,ENE,65,4.0,5.0,52,0.00,,,0.00,weatherlink.com 1.10,2013-01-22 07:33:00,
2013-01-22 00:48:00,18.1,3.0,30.54,ENE,65,4.0,5.0,51,0.00,,,0.00,weatherlink.com 1.10,2013-01-22 07:48:00,
2013-01-22 01:03:00,17.0,2.0,30.54,ENE,65,4.0,6.0,52,0.00,,,0.00,weatherlink.com 1.10,2013-01-22 08:03:00,
2013-01-22 01:18:00,17.9,2.0,30.54,ENE,65,4.0,6.0,51,0.00,,,0.00,weatherlink.com 1.10,2013-01-22 08:18:00,
2013-01-22 01:33:00,17.2,3.0,30.55,ENE,65,0.0,4.0,53,0.00,,,0.00,weatherlink.com 1.10,2013-01-22 08:33:00,
2013-01-22 01:48:00,19.5,4.0,30.55,ENE,65,0.0,0.0,50,0.00,,,0.00,weatherlink.com 1.10,2013-01-22 08:48:00,
2013-01-22 02:03:00,19.9,3.0,30.56,ENE,65,0.0,0.0,49,0.00,,,0.00,weatherlink.com 1.10,2013-01-22 09:03:00,
2013-01-22 02:18:00,19.7,4.0,30.55,ENE,65,0.0,0.0,50,0.00,,,0.00,weatherlink.com 1.10,2013-01-22 09:18:00,
2013-01-22 02:33:00,18.2,2.0,30.55,ENE,65,2.0,4.0,50,0.00,,,0.00,weatherlink.com 1.10,2013-01-22 09:33:00,
2013-01-22 02:48:00,17.0,2.0,30.55,ENE,65,1.0,4.0,53,0.00,,,0.00,weatherlink.com 1.10,2013-01-22 09:48:00,
2013-01-22 03:03:00,17.3,2.0,30.55,NE,44,2.0,5.0,52,0.00,,,0.00,weatherlink.com 1.10,2013-01-22 10:03:00,
2013-01-22 03:18:00,17.4,2.0,30.54,NE,44,0.0,2.0,51,0.00,,,0.00,weatherlink.com 1.10,2013-01-22 10:18:00,
2013-01-22 03:33:00,18.1,2.0,30.53,NE,44,0.0,0.0,50,0.00,,,0.00,weatherlink.com 1.10,2013-01-22 10:33:00,
2013-01-22 03:48:00,17.8,2.0,30.53,NE,44,0.0,0.0,50,0.00,,,0.00,weatherlink.com 1.10,2013-01-22 10:48:00,
2013-01-22 04:03:00,17.2,1.0,30.52,NE,44,0.0,0.0,50,0.00,,,0.00,weatherlink.com 1.10,2013-01-22 11:03:00,
2013-01-22 04:19:00,16.1,1.0,30.53,NE,41,4.0,5.0,51,0.00,,,0.00,weatherlink.com 1.10,2013-01-22 11:19:00,
2013-01-22 04:34:00,14.2,0.0,30.53,NE,34,3.0,6.0,53,0.00,,,0.00,weatherlink.com 1.10,2013-01-22 11:34:00,
2013-01-22 04:49:00,14.6,0.0,30.53,NE,34,2.0,4.0,53,0.00,,,0.00,weatherlink.com 1.10,2013-01-22 11:49:00,
2013-01-22 05:04:00,15.3,0.0,30.54,NE,34,2.0,4.0,52,0.00,,,0.00,weatherlink.com 1.10,2013-01-22 12:04:00,
2013-01-22 05:19:00,16.2,1.0,30.54,NE,34,0.0,0.0,51,0.00,,,0.00,weatherlink.com 1.10,2013-01-22 12:19:00,
2013-01-22 05:34:00,16.6,1.0,30.55,NE,34,0.0,0.0,50,0.00,,,0.00,weatherlink.com 1.10,2013-01-22 12:34:00,
2013-01-22 05:49:00,15.9,0.0,30.55,NE,34,1.0,3.0,50,0.00,,,0.00,weatherlink.com 1.10,2013-01-22 12:49:00,
2013-01-22 06:04:00,14.4,0.0,30.55,NE,35,4.0,5.0,52,0.00,,,0.00,weatherlink.com 1.10,2013-01-22 13:04:00,
2013-01-22 06:19:00,14.6,-1.0,30.56,NE,35,4.0,5.0,51,0.00,,,0.00,weatherlink.com 1.10,2013-01-22 13:19:00,
2013-01-22 06:34:00,15.5,0.0,30.56,NE,35,2.0,4.0,50,0.00,,,0.00,weatherlink.com 1.10,2013-01-22 13:34:00,
2013-01-22 06:49:00,16.4,0.0,30.56,NE,35,0.0,0.0,48,0.00,,,0.00,weatherlink.com 1.10,2013-01-22 13:49:00,
2013-01-22 07:04:00,13.8,-2.0,30.56,NE,35,0.0,0.0,50,0.00,,,0.00,weatherlink.com 1.10,2013-01-22 14:04:00,
2013-01-22 07:19:00,13.1,-1.0,30.56,NE,35,5.0,6.0,53,0.00,,,0.00,weatherlink.com 1.10,2013-01-22 14:19:00,
2013-01-22 07:34:00,13.4,-1.0,30.56,NE,39,4.0,5.0,53,0.00,,,0.00,weatherlink.com 1.10,2013-01-22 14:34:00,
2013-01-22 07:49:00,15.1,0.0,30.56,NE,39,2.0,3.0,52,0.00,,,0.00,weatherlink.com 1.10,2013-01-22 14:49:00,
2013-01-22 08:04:00,15.7,0.0,30.57,NE,39,3.0,3.0,51,0.00,,,0.00,weatherlink.com 1.10,2013-01-22 15:04:00,
2013-01-22 08:20:00,18.5,1.0,30.57,NE,39,0.0,3.0,47,0.00,,,0.00,weatherlink.com 1.10,2013-01-22 15:20:00,
2013-01-22 08:35:00,19.7,1.0,30.57,NE,39,0.0,0.0,45,0.00,,,0.00,weatherlink.com 1.10,2013-01-22 15:35:00,
2013-01-22 08:50:00,21.7,2.0,30.57,NE,39,0.0,0.0,43,0.00,,,0.00,weatherlink.com 1.10,2013-01-22 15:50:00,
2013-01-22 09:05:00,23.9,3.0,30.57,NE,39,0.0,0.0,41,0.00,,,0.00,weatherlink.com 1.10,2013-01-22 16:05:00,
2013-01-22 09:20:00,25.2,3.0,30.58,NE,39,0.0,0.0,39,0.00,,,0.00,weatherlink.com 1.10,2013-01-22 16:20:00,
2013-01-22 09:35:00,26.2,4.0,30.58,NE,39,0.0,0.0,38,0.00,,,0.00,weatherlink.com 1.10,2013-01-22 16:35:00,
2013-01-22 09:50:00,26.3,4.0,30.58,NE,39,0.0,0.0,38,0.00,,,0.00,weatherlink.com 1.10,2013-01-22 16:50:00,
2013-01-22 10:05:00,22.9,4.0,30.58,NE,39,0.0,4.0,44,0.00,,,0.00,weatherlink.com 1.10,2013-01-22 17:05:00,
2013-01-22 10:20:00,24.9,5.0,30.58,NE,39,0.0,0.0,42,0.00,,,0.00,weatherlink.com 1.10,2013-01-22 17:20:00,
2013-01-22 10:35:00,26.9,5.0,30.58,NE,39,0.0,2.0,40,0.00,,,0.00,weatherlink.com 1.10,2013-01-22 17:35:00,
2013-01-22 10:50:00,26.2,4.0,30.58,NE,39,0.0,0.0,39,0.00,,,0.00,weatherlink.com 1.10,2013-01-22 17:50:00,
2013-01-22 11:05:00,26.8,5.0,30.57,NE,39,0.0,0.0,39,0.00,,,0.00,weatherlink.com 1.10,2013-01-22 18:05:00,
2013-01-22 11:20:00,28.9,4.0,30.56,NE,39,0.0,0.0,35,0.00,,,0.00,weatherlink.com 1.10,2013-01-22 18:20:00,
2013-01-22 11:35:00,31.7,4.0,30.55,NE,39,0.0,0.0,31,0.00,,,0.00,weatherlink.com 1.10,2013-01-22 18:35:00,
2013-01-22 11:51:00,31.9,5.0,30.55,NE,39,0.0,0.0,32,0.00,,,0.00,weatherlink.com 1.10,2013-01-22 18:51:00,
2013-01-22 12:21:00,33.6,9.0,30.53,North,11,2.0,4.0,35,0.00,,,0.00,weatherlink.com 1.10,2013-01-22 19:21:00,
2013-01-22 12:36:00,35.2,7.0,30.52,North,11,0.0,0.0,30,0.00,,,0.00,weatherlink.com 1.10,2013-01-22 19:36:00,
2013-01-22 13:06:00,39.4,7.0,30.52,North,11,0.0,0.0,26,0.00,,,0.00,weatherlink.com 1.10,2013-01-22 20:06:00,
2013-01-22 13:21:00,38.4,8.0,30.51,North,11,0.0,0.0,28,0.00,,,0.00,weatherlink.com 1.10,2013-01-22 20:21:00,
2013-01-22 14:06:00,40.1,12.0,30.49,WNW,287,0.0,0.0,31,0.00,,,0.00,weatherlink.com 1.10,2013-01-22 21:06:00,
2013-01-22 14:21:00,40.3,12.0,30.48,WNW,282,0.0,4.0,31,0.00,,,0.00,weatherlink.com 1.10,2013-01-22 21:21:00,
2013-01-22 14:37:00,39.9,11.0,30.48,WNW,285,0.0,3.0,31,0.00,,,0.00,weatherlink.com 1.10,2013-01-22 21:37:00,
2013-01-22 14:52:00,40.2,11.0,30.48,WNW,288,0.0,3.0,30,0.00,,,0.00,weatherlink.com 1.10,2013-01-22 21:52:00,
2013-01-22 15:07:00,42.2,10.0,30.48,West,281,0.0,4.0,27,0.00,,,0.00,weatherlink.com 1.10,2013-01-22 22:07:00,
2013-01-22 15:22:00,41.5,12.0,30.48,West,280,0.0,0.0,30,0.00,,,0.00,weatherlink.com 1.10,2013-01-22 22:22:00,
2013-01-22 15:37:00,40.9,11.0,30.48,West,280,0.0,0.0,29,0.00,,,0.00,weatherlink.com 1.10,2013-01-22 22:37:00,
2013-01-22 15:52:00,40.4,10.0,30.48,West,281,0.0,0.0,28,0.00,,,0.00,weatherlink.com 1.10,2013-01-22 22:52:00,
2013-01-22 16:07:00,40.0,10.0,30.48,West,266,0.0,0.0,29,0.00,,,0.00,weatherlink.com 1.10,2013-01-22 23:07:00,
2013-01-22 16:22:00,39.4,9.0,30.48,West,266,0.0,0.0,28,0.00,,,0.00,weatherlink.com 1.10,2013-01-22 23:22:00,
2013-01-22 16:37:00,39.6,8.0,30.48,West,266,0.0,0.0,27,0.00,,,0.00,weatherlink.com 1.10,2013-01-22 23:37:00,
2013-01-22 16:52:00,39.3,8.0,30.49,West,266,0.0,0.0,27,0.00,,,0.00,weatherlink.com 1.10,2013-01-22 23:52:00,
2013-01-22 17:07:00,38.0,7.0,30.49,West,266,0.0,0.0,28,0.00,,,0.00,weatherlink.com 1.10,2013-01-23 00:07:00,
2013-01-22 17:22:00,36.1,7.0,30.49,West,266,0.0,0.0,29,0.00,,,0.00,weatherlink.com 1.10,2013-01-23 00:22:00,
2013-01-22 17:37:00,33.7,7.0,30.50,West,266,0.0,0.0,33,0.00,,,0.00,weatherlink.com 1.10,2013-01-23 00:37:00,
2013-01-22 17:52:00,32.4,7.0,30.51,West,266,0.0,0.0,35,0.00,,,0.00,weatherlink.com 1.10,2013-01-23 00:52:00,
2013-01-22 18:07:00,33.0,8.0,30.51,West,266,0.0,0.0,35,0.00,,,0.00,weatherlink.com 1.10,2013-01-23 01:07:00,
2013-01-22 18:22:00,31.9,8.0,30.51,SW,224,2.0,4.0,36,0.00,,,0.00,weatherlink.com 1.10,2013-01-23 01:22:00,
2013-01-22 18:38:00,28.7,7.0,30.51,East,88,4.0,5.0,40,0.00,,,0.00,weatherlink.com 1.10,2013-01-23 01:38:00,
2013-01-22 18:53:00,27.5,7.0,30.51,East,89,2.0,5.0,42,0.00,,,0.00,weatherlink.com 1.10,2013-01-23 01:53:00,
2013-01-22 19:08:00,27.4,6.0,30.53,East,88,0.0,0.0,41,0.00,,,0.00,weatherlink.com 1.10,2013-01-23 02:08:00,
2013-01-22 19:23:00,26.9,6.0,30.52,East,82,0.0,4.0,41,0.00,,,0.00,weatherlink.com 1.10,2013-01-23 02:23:00,
2013-01-22 19:38:00,26.0,6.0,30.52,East,82,0.0,0.0,42,0.00,,,0.00,weatherlink.com 1.10,2013-01-23 02:38:00,
2013-01-22 19:53:00,25.8,5.0,30.53,East,82,0.0,0.0,42,0.00,,,0.00,weatherlink.com 1.10,2013-01-23 02:53:00,
2013-01-22 20:08:00,25.8,5.0,30.54,East,82,0.0,0.0,42,0.00,,,0.00,weatherlink.com 1.10,2013-01-23 03:08:00,
2013-01-22 20:23:00,25.0,5.0,30.55,East,82,0.0,0.0,42,0.00,,,0.00,weatherlink.com 1.10,2013-01-23 03:23:00,
2013-01-22 20:38:00,25.2,5.0,30.55,East,82,0.0,0.0,42,0.00,,,0.00,weatherlink.com 1.10,2013-01-23 03:38:00,
2013-01-22 20:53:00,27.2,6.0,30.55,East,82,0.0,0.0,40,0.00,,,0.00,weatherlink.com 1.10,2013-01-23 03:53:00,
2013-01-22 21:08:00,25.8,4.0,30.56,East,82,5.0,6.0,40,0.00,,,0.00,weatherlink.com 1.10,2013-01-23 04:08:00,
2013-01-22 21:23:00,22.7,4.0,30.56,ENE,77,5.0,7.0,44,0.00,,,0.00,weatherlink.com 1.10,2013-01-23 04:23:00,
2013-01-22 21:38:00,22.5,4.0,30.56,ENE,78,3.0,6.0,44,0.00,,,0.00,weatherlink.com 1.10,2013-01-23 04:38:00,
2013-01-22 21:54:00,23.3,4.0,30.56,ENE,69,0.0,4.0,43,0.00,,,0.00,weatherlink.com 1.10,2013-01-23 04:54:00,
2013-01-22 22:09:00,25.1,5.0,30.56,ENE,69,0.0,2.0,43,0.00,,,0.00,weatherlink.com 1.10,2013-01-23 05:09:00,
2013-01-22 22:24:00,26.3,5.0,30.57,ENE,70,0.0,0.0,41,0.00,,,0.00,weatherlink.com 1.10,2013-01-23 05:24:00,
2013-01-22 22:39:00,24.4,4.0,30.57,ENE,70,0.0,0.0,41,0.00,,,0.00,weatherlink.com 1.10,2013-01-23 05:39:00,
2013-01-22 22:54:00,22.8,3.0,30.57,ENE,77,2.0,4.0,43,0.00,,,0.00,weatherlink.com 1.10,2013-01-23 05:54:00,
2013-01-22 23:09:00,20.9,3.0,30.57,East,79,0.0,2.0,46,0.00,,,0.00,weatherlink.com 1.10,2013-01-23 06:09:00,
2013-01-22 23:24:00,21.7,4.0,30.57,East,82,0.0,0.0,47,0.00,,,0.00,weatherlink.com 1.10,2013-01-23 06:24:00,
2013-01-22 23:39:00,21.8,3.0,30.57,East,86,0.0,2.0,45,0.00,,,0.00,weatherlink.com 1.10,2013-01-23 06:39:00,
2013-01-22 23:54:00,20.5,3.0,30.58,ENE,73,2.0,4.0,46,0.00,,,0.00,weatherlink.com 1.10,2013-01-23 06:54:00,